createdAt,value
2023-04-26T00:02:45.281Z,4.74
2023-04-26T00:06:25.282Z,4.64
2023-04-26T00:09:54.590Z,4.56
2023-04-26T00:13:32.426Z,4.53
2023-04-26T00:17:11.037Z,4.37
2023-04-26T00:20:16.721Z,4.09
2023-04-26T00:23:39.123Z,4.03
2023-04-26T00:27:09.439Z,4.03
2023-04-26T00:30:48.052Z,4.01
2023-04-26T00:34:23.654Z,3.92
2023-04-26T00:37:24.227Z,3.89
2023-04-26T00:40:21.016Z,3.81
2023-04-26T00:44:09.288Z,3.71
2023-04-26T00:47:48.130Z,3.58
2023-04-26T00:51:11.200Z,3.50
2023-04-26T00:54:54.464Z,3.49
2023-04-26T00:58:30.306Z,3.43
2023-04-26T01:02:00.866Z,3.40
2023-04-26T01:05:38.155Z,3.41
2023-04-26T01:09:06.784Z,3.42
2023-04-26T01:11:59.005Z,3.44
2023-04-26T01:15:30.330Z,3.49
2023-04-26T01:18:26.170Z,3.48
2023-04-26T01:21:59.147Z,3.51
2023-04-26T01:25:31.767Z,3.52
2023-04-26T01:28:55.969Z,3.42
2023-04-26T01:32:33.066Z,3.27
2023-04-26T01:36:13.409Z,3.11
2023-04-26T01:40:01.184Z,2.97
2023-04-26T01:43:10.778Z,2.89
2023-04-26T01:46:48.575Z,2.83
2023-04-26T01:50:15.917Z,2.78
2023-04-26T01:53:46.231Z,2.76
2023-04-26T01:57:27.321Z,2.73
2023-04-26T02:01:07.393Z,2.61
2023-04-26T02:04:54.976Z,2.53
2023-04-26T02:08:18.426Z,2.45
2023-04-26T02:11:40.748Z,2.39
2023-04-26T02:15:20.455Z,2.34
2023-04-26T02:18:45.994Z,2.22
2023-04-26T02:22:24.532Z,2.16
2023-04-26T02:25:52.483Z,2.21
2023-04-26T02:29:12.339Z,2.23
2023-04-26T02:32:59.600Z,2.30
2023-04-26T02:36:37.379Z,2.31
2023-04-26T02:40:25.148Z,2.33
2023-04-26T02:44:12.569Z,2.25
2023-04-26T02:47:53.030Z,2.19
2023-04-26T02:51:32.476Z,2.16
2023-04-26T02:55:03.921Z,2.14
2023-04-26T02:58:51.654Z,2.21
2023-04-26T03:02:32.850Z,2.25
2023-04-26T03:06:11.508Z,2.31
2023-04-26T03:09:41.261Z,2.32
2023-04-26T03:13:03.892Z,2.29
2023-04-26T03:16:51.123Z,2.21
2023-04-26T03:20:38.582Z,2.16
2023-04-26T03:24:02.958Z,2.12
2023-04-26T03:27:21.741Z,2.03
2023-04-26T03:30:54.800Z,2.01
2023-04-26T03:34:28.391Z,1.98
2023-04-26T03:38:13.736Z,1.93
2023-04-26T03:41:19.692Z,2.01
2023-04-26T03:44:23.806Z,2.06
2023-04-26T03:47:39.218Z,2.02
2023-04-26T03:51:12.532Z,2.04
2023-04-26T03:54:28.252Z,2.01
2023-04-26T03:57:33.340Z,2.04
2023-04-26T04:01:03.402Z,2.06
2023-04-26T04:04:19.264Z,2.09
2023-04-26T04:07:58.060Z,2.13
2023-04-26T04:11:28.643Z,2.17
2023-04-26T04:14:48.549Z,2.25
2023-04-26T04:17:59.017Z,2.25
2023-04-26T04:21:03.802Z,2.23
2023-04-26T04:24:23.161Z,2.29
2023-04-26T04:27:53.537Z,2.34
2023-04-26T04:31:40.912Z,2.47
2023-04-26T04:35:29.377Z,2.56
2023-04-26T04:39:17.350Z,2.59
2023-04-26T04:42:05.832Z,2.63
2023-04-26T04:45:50.124Z,2.71
2023-04-26T04:49:04.112Z,2.80
2023-04-26T04:52:34.567Z,2.95
2023-04-26T04:56:22.657Z,3.06
2023-04-26T05:00:06.833Z,3.19
2023-04-26T05:03:36.847Z,3.29
2023-04-26T05:07:26.330Z,3.36
2023-04-26T05:11:11.725Z,3.54
2023-04-26T05:14:32.504Z,3.62
2023-04-26T05:17:55.842Z,3.63
2023-04-26T05:21:28.441Z,3.80
2023-04-26T05:24:56.620Z,3.86
2023-04-26T05:28:43.893Z,3.89
2023-04-26T05:32:34.191Z,4.00
2023-04-26T05:36:01.505Z,4.17
2023-04-26T05:39:26.789Z,4.26
2023-04-26T05:43:11.811Z,4.53
2023-04-26T05:47:00.182Z,4.77
2023-04-26T05:50:49.233Z,4.74
2023-04-26T05:54:16.533Z,4.69
2023-04-26T05:57:57.729Z,4.86
2023-04-26T06:01:44.930Z,5.12
2023-04-26T06:05:02.860Z,5.00
2023-04-26T06:08:14.136Z,5.19
2023-04-26T06:12:02.464Z,5.49
2023-04-26T06:15:33.645Z,5.62
2023-04-26T06:19:10.812Z,5.56
2023-04-26T06:22:34.173Z,5.43
2023-04-26T06:26:09.662Z,5.62
2023-04-26T06:29:28.126Z,5.93
2023-04-26T06:33:16.129Z,6.02
2023-04-26T06:37:05.039Z,6.00
2023-04-26T06:40:41.424Z,6.32
2023-04-26T06:44:05.491Z,6.46
2023-04-26T06:47:28.565Z,6.65
2023-04-26T06:51:00.611Z,6.87
2023-04-26T06:54:53.564Z,7.25
2023-04-26T06:58:38.248Z,7.35
2023-04-26T07:02:26.163Z,7.50
2023-04-26T07:05:59.935Z,7.68
2023-04-26T07:09:40.269Z,8.25
2023-04-26T07:13:20.848Z,8.28
2023-04-26T07:16:46.509Z,8.36
2023-04-26T07:20:33.258Z,8.81
2023-04-26T07:24:19.300Z,10.11
2023-04-26T07:28:06.907Z,10.81
2023-04-26T07:31:54.466Z,11.00
2023-04-26T07:35:41.993Z,11.09
2023-04-26T07:39:22.077Z,9.76
2023-04-26T07:43:09.945Z,9.73
2023-04-26T07:46:47.680Z,10.37
2023-04-26T07:50:25.387Z,11.22
2023-04-26T07:53:55.091Z,11.19
2023-04-26T07:57:33.703Z,10.67
2023-04-26T08:01:07.149Z,10.61
2023-04-26T08:04:55.737Z,10.36
2023-04-26T08:08:44.423Z,10.54
2023-04-26T08:12:32.727Z,11.16
2023-04-26T08:16:19.749Z,11.23
2023-04-26T08:19:56.850Z,11.29
2023-04-26T08:23:35.544Z,10.74
2023-04-26T08:27:35.721Z,10.03
2023-04-26T08:31:04.261Z,10.92
2023-04-26T08:34:45.424Z,11.58
2023-04-26T08:38:13.707Z,10.84
2023-04-26T08:42:01.700Z,10.24
2023-04-26T08:45:49.834Z,10.62
2023-04-26T08:49:34.294Z,11.17
2023-04-26T08:53:22.333Z,11.01
2023-04-26T08:56:38.557Z,11.31
2023-04-26T09:00:26.500Z,11.75
2023-04-26T09:04:06.992Z,12.14
2023-04-26T09:07:51.313Z,11.93
2023-04-26T09:11:39.314Z,12.02
2023-04-26T09:15:15.387Z,11.61
2023-04-26T09:18:55.590Z,10.99
2023-04-26T09:22:45.834Z,10.65
2023-04-26T09:26:33.444Z,10.29
2023-04-26T09:30:20.017Z,10.48
2023-04-26T09:34:07.685Z,10.22
2023-04-26T09:37:59.586Z,10.29
2023-04-26T09:41:38.863Z,11.29
2023-04-26T09:45:01.635Z,11.66
2023-04-26T09:48:52.670Z,10.83
2023-04-26T09:52:40.679Z,10.26
2023-04-26T09:56:31.980Z,10.07
2023-04-26T10:00:30.978Z,10.99
2023-04-26T10:04:19.295Z,12.25
2023-04-26T10:08:06.135Z,12.11
2023-04-26T10:11:26.136Z,11.81
2023-04-26T10:15:14.684Z,11.42
2023-04-26T10:19:02.370Z,12.12
2023-04-26T10:22:55.402Z,12.16
2023-04-26T10:26:43.251Z,12.00
2023-04-26T10:30:23.176Z,12.77
2023-04-26T10:34:11.932Z,12.91
2023-04-26T10:38:04.422Z,11.92
2023-04-26T10:41:47.650Z,11.95
2023-04-26T10:45:41.645Z,11.41
2023-04-26T10:49:11.952Z,11.27
2023-04-26T10:52:46.844Z,11.65
2023-04-26T10:56:44.133Z,11.91
2023-04-26T10:59:58.787Z,12.00
2023-04-26T11:03:34.919Z,12.11
2023-04-26T11:07:29.191Z,11.72
2023-04-26T11:11:16.756Z,11.87
2023-04-26T11:14:38.527Z,11.65
2023-04-26T11:18:15.326Z,12.19
2023-04-26T11:21:17.124Z,12.34
2023-04-26T11:24:59.163Z,12.11
2023-04-26T11:28:47.416Z,12.09
2023-04-26T11:32:30.894Z,11.98
2023-04-26T11:35:55.098Z,12.03
2023-04-26T11:39:42.668Z,12.21
2023-04-26T11:43:13.944Z,12.06
2023-04-26T11:47:02.214Z,12.23
2023-04-26T11:50:50.188Z,12.21
2023-04-26T11:54:39.477Z,12.41
2023-04-26T11:58:29.555Z,13.36
2023-04-26T12:02:20.102Z,13.58
2023-04-26T12:06:07.399Z,13.57
2023-04-26T12:09:41.172Z,13.25
2023-04-26T12:13:19.966Z,13.21
2023-04-26T12:17:06.666Z,13.22
2023-04-26T12:20:09.589Z,13.21
2023-04-26T12:23:59.346Z,12.80
2023-04-26T12:27:27.005Z,12.57
2023-04-26T12:31:05.036Z,12.23
2023-04-26T12:34:45.028Z,13.22
2023-04-26T12:38:17.680Z,14.01
2023-04-26T12:42:03.903Z,13.52
2023-04-26T12:45:50.723Z,12.25
2023-04-26T12:49:31.543Z,12.32
2023-04-26T12:53:18.793Z,12.21
2023-04-26T12:56:57.559Z,12.69
2023-04-26T13:00:37.479Z,13.46
2023-04-26T13:04:10.713Z,13.38
2023-04-26T13:07:42.408Z,12.31
2023-04-26T13:11:31.118Z,12.22
2023-04-26T13:15:19.255Z,11.80
2023-04-26T13:19:07.095Z,11.81
2023-04-26T13:22:43.526Z,11.86
2023-04-26T13:26:26.435Z,11.85
2023-04-26T13:29:59.230Z,12.07
2023-04-26T13:33:48.125Z,11.71
2023-04-26T13:37:25.548Z,11.78
2023-04-26T13:41:06.384Z,13.37
2023-04-26T13:44:54.869Z,12.97
2023-04-26T13:48:43.474Z,12.57
2023-04-26T13:52:13.855Z,12.33
2023-04-26T13:55:55.016Z,12.08
2023-04-26T13:59:26.514Z,11.90
2023-04-26T14:02:53.249Z,11.82
2023-04-26T14:06:39.772Z,12.26
2023-04-26T14:35:59.954Z,12.98
2023-04-26T14:52:00.275Z,13.47
2023-04-26T14:55:45.071Z,12.57
2023-04-26T14:59:28.216Z,12.07
2023-04-26T15:03:08.793Z,11.73
2023-04-26T15:06:27.135Z,11.38
2023-04-26T15:09:56.257Z,11.47
2023-04-26T15:13:05.829Z,11.43
2023-04-26T15:16:35.327Z,11.55
2023-04-26T15:20:23.448Z,11.85
2023-04-26T15:24:13.032Z,11.91
2023-04-26T15:27:52.006Z,11.79
2023-04-26T15:31:42.370Z,11.49
2023-04-26T15:34:50.094Z,11.50
2023-04-26T15:38:39.154Z,11.48
2023-04-26T15:42:23.977Z,11.47
2023-04-26T15:45:44.026Z,11.85
2023-04-26T15:49:17.478Z,12.07
2023-04-26T15:52:49.014Z,12.07
2023-04-26T15:56:12.819Z,12.33
2023-04-26T15:59:38.503Z,13.04
2023-04-26T16:03:10.619Z,12.95
2023-04-26T16:06:53.519Z,13.24
2023-04-26T16:09:34.103Z,12.97
2023-04-26T16:12:45.667Z,13.20
2023-04-26T16:16:26.047Z,13.00
2023-04-26T16:20:15.195Z,12.44
2023-04-26T16:23:57.217Z,11.67
2023-04-26T16:27:28.101Z,11.37
2023-04-26T16:30:44.291Z,11.11
2023-04-26T16:34:16.421Z,10.97
2023-04-26T16:37:51.349Z,10.89
2023-04-26T16:41:16.617Z,10.92
2023-04-26T16:44:24.724Z,10.81
2023-04-26T16:47:58.887Z,10.73
2023-04-26T16:51:46.661Z,10.66
2023-04-26T16:55:29.427Z,10.68
2023-04-26T16:59:18.487Z,10.71
2023-04-26T17:02:58.380Z,10.73
2023-04-26T17:06:29.241Z,10.89
2023-04-26T17:09:38.560Z,11.09
2023-04-26T17:13:04.140Z,11.13
2023-04-26T17:15:44.699Z,11.04
2023-04-26T17:18:25.279Z,10.86
2023-04-26T17:21:04.297Z,10.73
2023-04-26T17:23:59.872Z,10.68
2023-04-26T17:26:43.611Z,10.56
2023-04-26T17:29:29.937Z,10.37
2023-04-26T17:32:27.998Z,10.22
2023-04-26T17:35:31.805Z,9.99
2023-04-26T17:38:38.300Z,9.93
2023-04-26T17:42:26.411Z,9.86
2023-04-26T17:45:50.769Z,9.70
2023-04-26T17:49:21.126Z,9.61
2023-04-26T17:52:26.883Z,9.55
2023-04-26T17:55:37.376Z,9.46
2023-04-26T17:59:18.653Z,9.42
2023-04-26T18:03:00.078Z,9.32
2023-04-26T18:06:31.661Z,9.21
2023-04-26T18:10:09.982Z,9.18
2023-04-26T18:13:32.701Z,9.11
2023-04-26T18:16:37.754Z,9.05
2023-04-26T18:19:42.302Z,8.98
2023-04-26T18:23:22.133Z,8.97
2023-04-26T18:27:02.514Z,8.79
2023-04-26T18:30:37.511Z,8.60
2023-04-26T18:34:12.186Z,8.41
2023-04-26T18:37:52.099Z,8.19
2023-04-26T18:40:40.623Z,8.05
2023-04-26T18:43:54.093Z,7.87
2023-04-26T18:47:23.412Z,7.76
2023-04-26T18:50:58.385Z,7.59
2023-04-26T18:54:34.609Z,7.43
2023-04-26T18:58:17.994Z,7.23
2023-04-26T19:01:23.026Z,7.06
2023-04-26T19:04:09.691Z,6.95
2023-04-26T19:07:25.302Z,6.81
2023-04-26T19:10:25.985Z,6.62
2023-04-26T19:14:21.761Z,6.48
2023-04-26T19:17:56.691Z,6.22
2023-04-26T19:21:05.136Z,6.05
2023-04-26T19:24:39.570Z,5.96
2023-04-26T19:27:53.810Z,5.84
2023-04-26T19:30:56.769Z,5.71
2023-04-26T19:34:26.011Z,5.56
2023-04-26T19:38:06.056Z,5.46
2023-04-26T19:41:40.825Z,5.36
2023-04-26T19:45:06.693Z,5.28
2023-04-26T19:48:56.163Z,5.19
2023-04-26T19:52:40.197Z,5.07
2023-04-26T19:56:29.679Z,4.95
2023-04-26T20:00:05.219Z,4.82
2023-04-26T20:03:33.586Z,4.75
2023-04-26T20:07:05.982Z,4.60
2023-04-26T20:10:45.331Z,4.47
2023-04-26T20:14:25.117Z,4.33
2023-04-26T20:17:29.810Z,4.26
2023-04-26T20:20:59.294Z,4.16
2023-04-26T20:24:23.556Z,4.09
2023-04-26T20:28:04.204Z,4.04
2023-04-26T20:31:53.645Z,3.98
2023-04-26T20:35:16.595Z,3.86
2023-04-26T20:38:51.450Z,3.78
2023-04-26T20:42:40.393Z,3.71
2023-04-26T20:46:28.231Z,3.66
2023-04-26T20:49:52.563Z,3.55
2023-04-26T20:53:26.301Z,3.50
2023-04-26T20:56:55.209Z,3.41
2023-04-26T21:00:36.891Z,3.38
2023-04-26T21:04:17.696Z,3.30
2023-04-26T21:07:42.576Z,3.23
2023-04-26T21:11:23.290Z,3.21
2023-04-26T21:14:56.558Z,3.13
2023-04-26T21:18:46.001Z,3.11
2023-04-26T21:22:35.161Z,3.10
2023-04-26T21:25:49.219Z,3.07
2023-04-26T21:29:29.351Z,3.03
2023-04-26T21:33:02.259Z,3.03
2023-04-26T21:36:37.139Z,2.99
2023-04-26T21:40:25.408Z,2.98
2023-04-26T21:43:39.560Z,2.93
2023-04-26T21:46:46.404Z,2.93
2023-04-26T21:50:17.073Z,2.88
2023-04-26T21:53:48.435Z,2.87
2023-04-26T21:57:28.783Z,2.83
2023-04-26T22:00:49.940Z,2.75
2023-04-26T22:04:07.809Z,2.79
2023-04-26T22:07:57.287Z,2.76
2023-04-26T22:11:23.831Z,2.69
2023-04-26T22:15:06.007Z,2.64
2023-04-26T22:18:48.569Z,2.56
2023-04-26T22:22:29.962Z,2.47
2023-04-26T22:25:41.528Z,2.44
2023-04-26T22:29:14.588Z,2.41
2023-04-26T22:32:56.196Z,2.38
2023-04-26T22:36:45.234Z,2.38
2023-04-26T22:40:24.377Z,2.30
2023-04-26T22:43:45.421Z,2.31
2023-04-26T22:47:25.384Z,2.28
2023-04-26T22:50:50.395Z,2.25
2023-04-26T22:54:25.643Z,2.22
2023-04-26T22:58:06.002Z,2.17
2023-04-26T23:01:19.004Z,2.13
2023-04-26T23:04:02.193Z,2.07
2023-04-26T23:07:29.935Z,2.08
2023-04-26T23:10:31.906Z,2.05
2023-04-26T23:13:38.013Z,2.03
2023-04-26T23:16:25.135Z,2.01
2023-04-26T23:19:58.112Z,1.99
2023-04-26T23:23:29.295Z,1.99
2023-04-26T23:26:40.299Z,1.95
2023-04-26T23:30:01.249Z,1.93
2023-04-26T23:33:41.650Z,1.94
2023-04-26T23:37:28.585Z,1.90
2023-04-26T23:40:38.855Z,1.82
2023-04-26T23:44:20.296Z,1.84
2023-04-26T23:47:19.354Z,1.91
2023-04-26T23:50:26.528Z,1.96
2023-04-26T23:53:42.040Z,1.91
2023-04-26T23:57:10.488Z,1.94
